createdAt,value
2017-01-01T00:00:49.351Z,412.41
2017-01-01T00:01:49.366Z,412.19
2017-01-01T00:02:49.373Z,411.94
2017-01-01T00:03:49.346Z,412.01
2017-01-01T00:04:49.347Z,410.18
2017-01-01T00:05:49.354Z,407.95
2017-01-01T00:06:49.347Z,407.35
2017-01-01T00:07:49.362Z,406.5
2017-01-01T00:08:49.359Z,405.56
2017-01-01T00:09:49.355Z,405.16
2017-01-01T00:10:49.369Z,403.63
2017-01-01T00:11:49.365Z,403.15
2017-01-01T00:12:49.363Z,401.89
2017-01-01T00:13:49.363Z,400.54
2017-01-01T00:14:49.360Z,399.94
2017-01-01T00:15:49.351Z,397.24
2017-01-01T00:16:49.360Z,395.23
2017-01-01T00:17:49.365Z,394.62
2017-01-01T00:18:49.369Z,393.94
2017-01-01T00:19:49.362Z,392.2
2017-01-01T00:20:49.366Z,390.91
2017-01-01T00:21:49.365Z,390.04
2017-01-01T00:22:49.365Z,389.43
2017-01-01T00:23:49.382Z,387.74
2017-01-01T00:24:49.374Z,385.93
2017-01-01T00:25:49.367Z,385.08
2017-01-01T00:26:49.365Z,383.93
2017-01-01T00:27:49.358Z,381.89
2017-01-01T00:28:49.369Z,380.86
2017-01-01T00:29:49.369Z,379.98
2017-01-01T00:30:49.365Z,378.6
2017-01-01T00:31:49.369Z,378.56
2017-01-01T00:32:49.361Z,376.79
2017-01-01T00:33:49.371Z,376.76
2017-01-01T00:34:49.361Z,377.13
2017-01-01T00:35:49.368Z,375.17
2017-01-01T00:36:49.369Z,374.46
2017-01-01T00:37:49.368Z,372.64
2017-01-01T00:38:49.373Z,371.8
2017-01-01T00:39:49.372Z,370
2017-01-01T00:40:49.375Z,368.85
2017-01-01T00:41:49.368Z,367.75
2017-01-01T00:42:49.375Z,366.57
2017-01-01T00:43:49.367Z,366.15
2017-01-01T00:44:49.375Z,366.09
2017-01-01T00:45:49.365Z,364.04
2017-01-01T00:46:49.373Z,362.94
2017-01-01T00:47:49.380Z,362.22
2017-01-01T00:48:49.373Z,360.81
2017-01-01T00:49:49.382Z,358.98
2017-01-01T00:50:49.373Z,358.78
2017-01-01T00:51:49.380Z,357.81
2017-01-01T00:52:49.374Z,356.91
2017-01-01T00:53:49.380Z,356.91
2017-01-01T00:54:49.381Z,356.24
2017-01-01T00:55:49.392Z,355.69
2017-01-01T00:56:49.387Z,354.58
2017-01-01T00:57:49.389Z,353.49
2017-01-01T00:58:49.390Z,353.07
2017-01-01T00:59:49.378Z,351.67
2017-01-01T01:00:49.386Z,350.34
2017-01-01T01:01:49.393Z,349.7
2017-01-01T01:02:49.383Z,349.06
2017-01-01T01:03:49.390Z,348.13
2017-01-01T01:04:49.381Z,346.76
2017-01-01T01:05:49.402Z,346.19
2017-01-01T01:06:49.383Z,345.25
2017-01-01T01:07:49.384Z,344.76
2017-01-01T01:08:49.379Z,344.12
2017-01-01T01:09:49.387Z,342.97
2017-01-01T01:10:49.393Z,340.95
2017-01-01T01:11:49.400Z,340.05
2017-01-01T01:12:49.392Z,339.09
2017-01-01T01:13:49.394Z,337.04
2017-01-01T01:14:49.405Z,336.16
2017-01-01T01:15:49.394Z,334.08
2017-01-01T01:16:49.392Z,333.3
2017-01-01T01:17:49.394Z,331.03
2017-01-01T01:18:49.392Z,330.46
2017-01-01T01:19:49.396Z,328.66
2017-01-01T01:20:49.399Z,326.24
2017-01-01T01:21:49.407Z,325.12
2017-01-01T01:22:49.398Z,324.65
2017-01-01T01:23:49.391Z,323.05
2017-01-01T01:24:49.398Z,322.79
2017-01-01T01:25:49.389Z,322.77
2017-01-01T01:26:49.395Z,321.13
2017-01-01T01:27:49.402Z,320.83
2017-01-01T01:28:49.400Z,319.82
2017-01-01T01:29:49.405Z,319.64
2017-01-01T01:30:49.408Z,318.95
2017-01-01T01:31:49.393Z,318.79
2017-01-01T01:32:49.400Z,318
2017-01-01T01:33:49.399Z,317.24
2017-01-01T01:34:49.400Z,316.15
2017-01-01T01:35:49.407Z,315.61
2017-01-01T01:36:49.414Z,314.7
2017-01-01T01:37:49.404Z,313.1
2017-01-01T01:38:49.419Z,313.1
2017-01-01T01:39:49.428Z,311.99
2017-01-01T01:40:49.414Z,310.79
2017-01-01T01:41:49.408Z,310.28
2017-01-01T01:42:49.407Z,309.8
2017-01-01T01:43:49.411Z,308.62
2017-01-01T01:44:49.403Z,308.46
2017-01-01T01:45:49.413Z,307.49
2017-01-01T01:46:49.418Z,307.07
2017-01-01T01:47:49.410Z,306.59
2017-01-01T01:48:49.414Z,305.17
2017-01-01T01:49:49.421Z,305.58
2017-01-01T01:50:49.417Z,303.94
2017-01-01T01:51:49.420Z,303.96
2017-01-01T01:52:49.418Z,303.86
2017-01-01T01:53:49.420Z,303.13
2017-01-01T01:54:49.417Z,302.6
2017-01-01T01:55:49.424Z,303.26
2017-01-01T01:56:49.416Z,303.34
2017-01-01T01:57:49.422Z,303.28
2017-01-01T01:58:49.420Z,303.64
2017-01-01T01:59:49.427Z,304.05
2017-01-01T02:00:49.419Z,302.84
2017-01-01T02:01:50.094Z,303.07
2017-01-01T02:02:49.424Z,301.93
2017-01-01T02:03:49.448Z,300.17
2017-01-01T02:04:49.426Z,300.5
2017-01-01T02:05:49.419Z,299.11
2017-01-01T02:06:49.420Z,298.21
2017-01-01T02:07:49.433Z,296.38
2017-01-01T02:08:49.425Z,295.5
2017-01-01T02:09:49.432Z,295.09
2017-01-01T02:10:49.428Z,292.43
2017-01-01T02:11:49.456Z,292.17
2017-01-01T02:12:49.437Z,290.54
2017-01-01T02:13:49.430Z,289.78
2017-01-01T02:14:49.461Z,288.37
2017-01-01T02:15:49.444Z,286.14
2017-01-01T02:16:49.439Z,284.83
2017-01-01T02:17:49.463Z,282.92
2017-01-01T02:18:49.437Z,282.26
2017-01-01T02:19:49.438Z,280.45
2017-01-01T02:20:49.433Z,278.41
2017-01-01T02:21:49.435Z,276.68
2017-01-01T02:22:49.437Z,274.78
2017-01-01T02:23:49.433Z,273.6
2017-01-01T02:24:49.451Z,271.65
2017-01-01T02:25:49.429Z,270.44
2017-01-01T02:26:49.444Z,271.14
2017-01-01T02:27:49.428Z,270.9
2017-01-01T02:28:49.436Z,271.34
2017-01-01T02:29:49.443Z,270.84
2017-01-01T02:30:49.434Z,272.92
2017-01-01T02:31:49.462Z,274.06
2017-01-01T02:32:49.440Z,275.12
2017-01-01T02:33:49.446Z,276.47
2017-01-01T02:34:49.450Z,278.28
2017-01-01T02:35:49.444Z,279.71
2017-01-01T02:36:49.448Z,281.33
2017-01-01T02:37:49.444Z,282.35
2017-01-01T02:38:49.436Z,283.99
2017-01-01T02:39:49.442Z,284.18
2017-01-01T02:40:49.450Z,285.59
2017-01-01T02:41:49.440Z,286.08
2017-01-01T02:42:49.445Z,287.64
2017-01-01T02:43:49.436Z,288.51
2017-01-01T02:44:49.443Z,290.2
2017-01-01T02:45:49.453Z,291.96
2017-01-01T02:46:49.446Z,293.58
2017-01-01T02:47:49.443Z,295.41
2017-01-01T02:48:49.444Z,297.09
2017-01-01T02:49:49.447Z,298.6
2017-01-01T02:50:49.443Z,299.14
2017-01-01T02:51:49.449Z,300.62
2017-01-01T02:52:49.445Z,302.42
2017-01-01T02:53:49.450Z,304.19
2017-01-01T02:54:49.461Z,306.23
2017-01-01T02:55:49.448Z,306.68
2017-01-01T02:56:49.459Z,308.47
2017-01-01T02:57:49.477Z,309.31
2017-01-01T02:58:49.456Z,311.03
2017-01-01T02:59:49.450Z,312.9
2017-01-01T03:00:49.458Z,314.52
2017-01-01T03:01:49.458Z,316.3
2017-01-01T03:02:49.454Z,316.55
2017-01-01T03:03:49.460Z,317.87
2017-01-01T03:04:49.452Z,320.82
2017-01-01T03:05:49.462Z,321.89
2017-01-01T03:06:49.465Z,323.4
2017-01-01T03:07:49.457Z,325.49
2017-01-01T03:08:49.466Z,326.89
2017-01-01T03:09:49.473Z,328.89
2017-01-01T03:10:49.456Z,328.36
2017-01-01T03:11:49.477Z,330.65
2017-01-01T03:12:49.467Z,331.08
2017-01-01T03:13:49.460Z,332.61
2017-01-01T03:14:49.476Z,333.3
2017-01-01T03:15:49.458Z,333.88
2017-01-01T03:16:49.510Z,334.1
2017-01-01T03:17:49.457Z,333.13
2017-01-01T03:18:49.471Z,331.8
2017-01-01T03:19:49.470Z,332.01
2017-01-01T03:20:49.463Z,330.83
2017-01-01T03:21:49.465Z,330.84
2017-01-01T03:22:49.487Z,328.8
2017-01-01T03:23:49.469Z,327.86
2017-01-01T03:24:49.474Z,328.8
2017-01-01T03:25:49.478Z,328.55
2017-01-01T03:26:49.477Z,329.43
2017-01-01T03:27:49.467Z,330.35
2017-01-01T03:28:49.485Z,330.76
2017-01-01T03:29:49.488Z,331.92
2017-01-01T03:30:49.474Z,332.35
2017-01-01T03:31:49.509Z,333.01
2017-01-01T03:32:49.484Z,333.5
2017-01-01T03:33:49.478Z,333.16
2017-01-01T03:34:49.484Z,333.07
2017-01-01T03:35:49.475Z,333.93
2017-01-01T03:36:49.482Z,333.7
2017-01-01T03:37:49.485Z,334.79
2017-01-01T03:38:49.490Z,334.56
2017-01-01T03:39:49.489Z,334.54
2017-01-01T03:40:49.482Z,334.31
2017-01-01T03:41:49.479Z,332.71
2017-01-01T03:42:49.481Z,331.09
2017-01-01T03:43:49.488Z,330.67
2017-01-01T03:44:49.499Z,329.72
2017-01-01T03:45:49.488Z,329.25
2017-01-01T03:46:49.477Z,329.44
2017-01-01T03:47:49.489Z,329.84
2017-01-01T03:48:49.489Z,330.35
2017-01-01T03:49:49.495Z,329.69
2017-01-01T03:50:49.478Z,330.62
2017-01-01T03:51:49.484Z,329.7
2017-01-01T03:52:49.491Z,329.19
2017-01-01T03:53:49.496Z,328.52
2017-01-01T03:54:49.493Z,328.55
2017-01-01T03:55:49.493Z,327.21
2017-01-01T03:56:49.491Z,326.35
2017-01-01T03:57:49.493Z,324.1
2017-01-01T03:58:49.488Z,323.04
2017-01-01T03:59:49.492Z,320.78
2017-01-01T04:00:49.486Z,321.2
2017-01-01T04:01:49.499Z,321.71
2017-01-01T04:02:49.498Z,322.45
2017-01-01T04:03:49.484Z,322.08
2017-01-01T04:04:49.518Z,322.52
2017-01-01T04:05:49.508Z,320.95
2017-01-01T04:06:49.498Z,320.75
2017-01-01T04:07:49.496Z,320.91
2017-01-01T04:08:49.501Z,320.89
2017-01-01T04:09:49.488Z,320.42
2017-01-01T04:10:49.501Z,319.22
2017-01-01T04:11:49.501Z,319.46
2017-01-01T04:12:49.493Z,320.17
2017-01-01T04:13:49.496Z,320.36
2017-01-01T04:14:49.507Z,320.28
2017-01-01T04:15:49.502Z,319.57
2017-01-01T04:16:49.506Z,319.75
2017-01-01T04:17:49.512Z,317.61
2017-01-01T04:18:49.519Z,318.57
2017-01-01T04:19:49.508Z,318.05
2017-01-01T04:20:49.502Z,317.86
2017-01-01T04:21:49.507Z,316.97
2017-01-01T04:22:49.502Z,317.36
2017-01-01T04:23:49.500Z,317.43
2017-01-01T04:24:49.500Z,316.99
2017-01-01T04:25:49.514Z,317.23
2017-01-01T04:26:49.511Z,317.19
2017-01-01T04:27:49.514Z,317.43
2017-01-01T04:28:49.545Z,316.28
2017-01-01T04:29:49.518Z,315.11
2017-01-01T04:30:49.511Z,315.51
2017-01-01T04:31:49.526Z,314.53
2017-01-01T04:32:49.503Z,314.78
2017-01-01T04:33:49.515Z,314.99
2017-01-01T04:34:49.504Z,314.85
2017-01-01T04:35:49.512Z,313.18
2017-01-01T04:36:49.511Z,312.97
2017-01-01T04:37:49.509Z,310.72
2017-01-01T04:38:49.515Z,310.26
2017-01-01T04:39:49.509Z,309.73
2017-01-01T04:40:49.509Z,310
2017-01-01T04:41:49.546Z,308.51
2017-01-01T04:42:49.522Z,307.41
2017-01-01T04:43:49.515Z,307.17
2017-01-01T04:44:49.517Z,305.69
2017-01-01T04:45:49.515Z,305.03
2017-01-01T04:46:49.521Z,304.23
2017-01-01T04:47:49.537Z,304.45
2017-01-01T04:48:49.515Z,302.9
2017-01-01T04:49:49.522Z,302.66
2017-01-01T04:50:49.532Z,300.62
2017-01-01T04:51:49.521Z,300.56
2017-01-01T04:52:49.535Z,299.4
2017-01-01T04:53:49.521Z,298.88
2017-01-01T04:54:49.525Z,298.19
2017-01-01T04:55:49.536Z,297.23
2017-01-01T04:56:49.552Z,298.39
2017-01-01T04:57:50.001Z,298.61
2017-01-01T04:58:49.558Z,298.15
2017-01-01T04:59:49.537Z,298.09
2017-01-01T05:00:49.524Z,298.05
2017-01-01T05:01:49.532Z,297.88
2017-01-01T05:02:49.524Z,298.16
2017-01-01T05:03:49.531Z,297.48
2017-01-01T05:04:49.523Z,296.32
2017-01-01T05:05:49.528Z,295.57
2017-01-01T05:06:49.536Z,296.21
2017-01-01T05:07:49.528Z,296.45
2017-01-01T05:08:49.538Z,295.47
2017-01-01T05:09:49.535Z,296.18
2017-01-01T05:10:49.528Z,296.35
2017-01-01T05:11:49.532Z,297.78
2017-01-01T05:12:49.537Z,296.09
2017-01-01T05:13:49.530Z,296.73
2017-01-01T05:14:49.547Z,296.71
2017-01-01T05:15:49.528Z,297.19
2017-01-01T05:16:49.537Z,296.74
2017-01-01T05:17:49.540Z,296.3
2017-01-01T05:18:49.535Z,296.75
2017-01-01T05:19:49.541Z,296.99
2017-01-01T05:20:49.535Z,296.31
2017-01-01T05:21:49.541Z,294.85
2017-01-01T05:22:49.536Z,296
2017-01-01T05:23:49.541Z,295.84
2017-01-01T05:24:49.554Z,294.82
2017-01-01T05:25:49.582Z,294.61
2017-01-01T05:26:49.547Z,293.25
2017-01-01T05:27:49.571Z,292.31
2017-01-01T05:28:49.545Z,292.03
2017-01-01T05:29:49.556Z,292.29
2017-01-01T05:30:49.556Z,292.26
2017-01-01T05:31:49.567Z,292.69
2017-01-01T05:32:49.550Z,293.11
2017-01-01T05:33:49.553Z,294.11
2017-01-01T05:34:49.545Z,293.77
2017-01-01T05:35:49.556Z,293.3
2017-01-01T05:36:49.565Z,294.21
2017-01-01T05:37:49.556Z,292.56
2017-01-01T05:38:49.562Z,292.03
2017-01-01T05:39:49.551Z,291.83
2017-01-01T05:40:49.560Z,291.56
2017-01-01T05:41:49.552Z,289.68
2017-01-01T05:42:49.556Z,289.9
2017-01-01T05:43:49.551Z,290.89
2017-01-01T05:44:49.559Z,291.32
2017-01-01T05:45:49.570Z,291.71
2017-01-01T05:46:49.573Z,291.31
2017-01-01T05:47:49.570Z,291.13
2017-01-01T05:48:49.585Z,291.13
2017-01-01T05:49:49.567Z,289.67
2017-01-01T05:50:49.561Z,289.87
2017-01-01T05:51:49.572Z,288.53
2017-01-01T05:52:49.572Z,288.97
2017-01-01T05:53:49.570Z,289.47
2017-01-01T05:54:49.572Z,289.71
2017-01-01T05:55:49.566Z,290.14
2017-01-01T05:56:49.569Z,290.6
2017-01-01T05:57:49.569Z,290.58
2017-01-01T05:58:49.574Z,289.16
2017-01-01T05:59:49.571Z,289.61
2017-01-01T06:00:49.572Z,288.93
2017-01-01T06:01:49.588Z,289.66
2017-01-01T06:02:49.571Z,288.47
2017-01-01T06:03:49.571Z,286.39
2017-01-01T06:04:49.577Z,287.32
2017-01-01T06:05:49.577Z,287.52
2017-01-01T06:06:49.573Z,288.93
2017-01-01T06:07:49.588Z,288.89
2017-01-01T06:08:49.576Z,291.21
2017-01-01T06:09:49.577Z,291.66
2017-01-01T06:10:49.576Z,291.56
2017-01-01T06:11:49.578Z,290.93
2017-01-01T06:12:49.582Z,290.86
2017-01-01T06:13:49.589Z,291.14
2017-01-01T06:14:49.584Z,291.55
2017-01-01T06:15:49.593Z,291.71
2017-01-01T06:16:49.576Z,291.97
2017-01-01T06:17:49.576Z,291.44
2017-01-01T06:18:49.580Z,291.85
2017-01-01T06:19:49.576Z,291.88
2017-01-01T06:20:49.583Z,291.87
2017-01-01T06:21:49.586Z,289.51
2017-01-01T06:22:49.577Z,290.92
2017-01-01T06:23:49.592Z,290.15
2017-01-01T06:24:49.585Z,290.59
2017-01-01T06:25:49.587Z,290.78
2017-01-01T06:26:49.585Z,291.72
2017-01-01T06:27:49.588Z,292.18
2017-01-01T06:28:49.590Z,291.69
2017-01-01T06:29:49.604Z,291
2017-01-01T06:30:49.584Z,290.96
2017-01-01T06:31:49.602Z,291.67
2017-01-01T06:32:49.583Z,290.8
2017-01-01T06:33:49.593Z,290.74
2017-01-01T06:34:49.594Z,291.62
2017-01-01T06:35:49.594Z,292.05
2017-01-01T06:36:49.601Z,293.45
2017-01-01T06:37:49.598Z,291.86
2017-01-01T06:38:49.605Z,292.35
2017-01-01T06:39:49.603Z,291.34
2017-01-01T06:40:49.594Z,290.19
2017-01-01T06:41:49.604Z,291.35
2017-01-01T06:42:49.601Z,292
2017-01-01T06:43:49.603Z,292.34
2017-01-01T06:44:49.611Z,293.02
2017-01-01T06:45:49.607Z,293.96
2017-01-01T06:46:49.599Z,293.86
2017-01-01T06:47:49.606Z,294.14
2017-01-01T06:48:49.597Z,293
2017-01-01T06:49:49.602Z,291.63
2017-01-01T06:50:49.612Z,290.85
2017-01-01T06:51:49.603Z,290.46
2017-01-01T06:52:49.623Z,290.44
2017-01-01T06:53:49.609Z,290.45
2017-01-01T06:54:49.605Z,289.3
2017-01-01T06:55:49.601Z,289.96
2017-01-01T06:56:49.607Z,290.66
2017-01-01T06:57:49.620Z,291.06
2017-01-01T06:58:49.606Z,290.4
2017-01-01T06:59:49.609Z,290.25
2017-01-01T07:00:49.612Z,289.71
2017-01-01T07:01:49.615Z,289.72
2017-01-01T07:02:49.635Z,288.97
2017-01-01T07:03:49.616Z,289.63
2017-01-01T07:04:49.605Z,289.81
2017-01-01T07:05:49.614Z,289.88
2017-01-01T07:06:49.604Z,289.17
2017-01-01T07:07:49.610Z,287.3
2017-01-01T07:08:49.609Z,287.07
2017-01-01T07:09:49.617Z,286.58
2017-01-01T07:10:49.614Z,286.83
2017-01-01T07:11:49.615Z,286.58
2017-01-01T07:12:49.618Z,286.8
2017-01-01T07:13:49.609Z,287.27
2017-01-01T07:14:49.623Z,287.91
2017-01-01T07:15:49.620Z,286.97
2017-01-01T07:16:49.618Z,286.77
2017-01-01T07:17:49.622Z,285.83
2017-01-01T07:18:49.619Z,286.99
2017-01-01T07:19:49.621Z,287.42
2017-01-01T07:20:49.620Z,287.63
2017-01-01T07:21:49.625Z,288.1
2017-01-01T07:22:50.333Z,287.36
2017-01-01T07:23:49.622Z,286.44
2017-01-01T07:24:49.616Z,287.64
2017-01-01T07:25:49.803Z,287.4
2017-01-01T07:26:49.629Z,288.57
2017-01-01T07:27:49.634Z,289.44
2017-01-01T07:28:49.642Z,290.36
2017-01-01T07:29:49.621Z,291.26
2017-01-01T07:30:49.638Z,293.11
2017-01-01T07:31:49.627Z,294.74
2017-01-01T07:32:49.628Z,295.4
2017-01-01T07:33:49.640Z,296.13
2017-01-01T07:34:49.637Z,296.41
2017-01-01T07:35:49.638Z,297.06
2017-01-01T07:36:49.627Z,298.58
2017-01-01T07:37:49.631Z,299.34
2017-01-01T07:38:49.626Z,300.92
2017-01-01T07:39:49.629Z,301.15
2017-01-01T07:40:49.643Z,302.23
2017-01-01T07:41:49.631Z,302.53
2017-01-01T07:42:49.636Z,303.36
2017-01-01T07:43:49.631Z,302.88
2017-01-01T07:44:49.635Z,303.56
2017-01-01T07:45:49.645Z,303.84
2017-01-01T07:46:49.648Z,303.83
2017-01-01T07:47:49.642Z,303.85
2017-01-01T07:48:49.651Z,304.32
2017-01-01T07:49:49.638Z,304.78
2017-01-01T07:50:49.645Z,305.7
2017-01-01T07:51:49.642Z,306.98
2017-01-01T07:52:49.645Z,308.1
2017-01-01T07:53:49.672Z,309.18
2017-01-01T07:54:49.647Z,311.08
2017-01-01T07:55:49.655Z,312.61
2017-01-01T07:56:49.645Z,313.49
2017-01-01T07:57:49.640Z,315.32
2017-01-01T07:58:49.646Z,316.02
2017-01-01T07:59:49.639Z,317.39
2017-01-01T08:00:49.647Z,318.95
2017-01-01T08:01:49.652Z,320.31
2017-01-01T08:02:49.645Z,323.54
2017-01-01T08:03:49.652Z,325.72
2017-01-01T08:04:49.646Z,327.26
2017-01-01T08:05:49.652Z,328.58
2017-01-01T08:06:49.645Z,330.86
2017-01-01T08:07:49.648Z,331.66
2017-01-01T08:08:49.654Z,333.49
2017-01-01T08:09:49.648Z,335.49
2017-01-01T08:10:49.652Z,336.86
2017-01-01T08:11:49.656Z,338.55
2017-01-01T08:12:49.682Z,339.74
2017-01-01T08:13:49.662Z,341.72
2017-01-01T08:14:49.653Z,344.35
2017-01-01T08:15:49.653Z,345.05
2017-01-01T08:16:49.679Z,347.73
2017-01-01T08:17:49.654Z,349.27
2017-01-01T08:18:49.686Z,350.77
2017-01-01T08:19:49.676Z,353.21
2017-01-01T08:20:49.657Z,355.21
2017-01-01T08:21:49.665Z,357.9
2017-01-01T08:22:49.657Z,359.84
2017-01-01T08:23:49.736Z,362
2017-01-01T08:24:49.694Z,363.99
2017-01-01T08:25:49.652Z,366.88
2017-01-01T08:26:49.661Z,368.17
2017-01-01T08:27:49.655Z,369.23
2017-01-01T08:28:49.664Z,371.39
2017-01-01T08:29:49.658Z,374.06
2017-01-01T08:30:49.714Z,375.58
2017-01-01T08:31:49.654Z,376.45
2017-01-01T08:32:49.655Z,378.24
2017-01-01T08:33:49.659Z,378.82
2017-01-01T08:34:49.652Z,377.21
2017-01-01T08:35:49.664Z,383.41
2017-01-01T08:36:49.655Z,384.46
2017-01-01T08:37:49.662Z,386.01
2017-01-01T08:38:49.670Z,388.59
2017-01-01T08:39:49.661Z,389.23
2017-01-01T08:40:49.671Z,391.62
2017-01-01T08:41:49.677Z,393.72
2017-01-01T08:42:49.665Z,396.09
2017-01-01T08:43:49.675Z,396.9
2017-01-01T08:44:49.668Z,397.98
2017-01-01T08:45:49.658Z,399.65
2017-01-01T08:46:49.664Z,403.11
2017-01-01T08:47:49.658Z,406.06
2017-01-01T08:48:49.661Z,409.7
2017-01-01T08:49:49.671Z,413.55
2017-01-01T08:50:49.661Z,416.75
2017-01-01T08:51:49.662Z,421.41
2017-01-01T08:52:49.660Z,425.64
2017-01-01T08:53:49.673Z,429.07
2017-01-01T08:54:49.673Z,433.08
2017-01-01T08:55:49.671Z,436.46
2017-01-01T08:56:49.677Z,440.42
2017-01-01T08:57:49.684Z,445
2017-01-01T08:58:49.673Z,448.58
2017-01-01T08:59:49.670Z,451.06
2017-01-01T09:00:49.673Z,453.63
2017-01-01T09:01:49.672Z,457.83
2017-01-01T09:02:49.679Z,460.35
2017-01-01T09:03:49.681Z,462.66
2017-01-01T09:04:49.684Z,465.35
2017-01-01T09:05:49.678Z,467.24
2017-01-01T09:06:49.669Z,468.05
2017-01-01T09:07:49.690Z,469.7
2017-01-01T09:08:49.683Z,471.12
2017-01-01T09:09:49.674Z,472.15
2017-01-01T09:10:49.681Z,471.94
2017-01-01T09:11:49.689Z,469.22
2017-01-01T09:12:49.683Z,469
2017-01-01T09:13:49.804Z,468.39
2017-01-01T09:14:49.688Z,467.92
2017-01-01T09:15:49.679Z,467.74
2017-01-01T09:16:49.685Z,467.09
2017-01-01T09:17:49.685Z,468.11
2017-01-01T09:18:49.681Z,470.74
2017-01-01T09:19:49.688Z,474.43
2017-01-01T09:20:49.690Z,480.16
2017-01-01T09:21:49.688Z,485.02
2017-01-01T09:22:49.694Z,489.97
2017-01-01T09:23:49.678Z,494.58
2017-01-01T09:24:49.709Z,498.21
2017-01-01T09:25:49.690Z,502.4
2017-01-01T09:26:49.693Z,505.83
2017-01-01T09:27:49.693Z,508.88
2017-01-01T09:28:49.685Z,512.9
2017-01-01T09:29:49.682Z,516.71
2017-01-01T09:30:49.685Z,520.83
2017-01-01T09:31:49.689Z,524.64
2017-01-01T09:32:49.681Z,527.28
2017-01-01T09:33:49.690Z,529.19
2017-01-01T09:34:49.696Z,531.98
2017-01-01T09:35:49.687Z,534.74
2017-01-01T09:36:49.696Z,538.13
2017-01-01T09:37:49.687Z,540.49
2017-01-01T09:38:49.701Z,543.21
2017-01-01T09:39:49.707Z,546.31
2017-01-01T09:40:49.698Z,549.06
2017-01-01T09:41:49.707Z,553.52
2017-01-01T09:42:49.694Z,556.23
2017-01-01T09:43:49.699Z,558.74
2017-01-01T09:44:49.698Z,559.89
2017-01-01T09:45:49.696Z,561.4
2017-01-01T09:46:49.695Z,562.89
2017-01-01T09:47:49.700Z,565.17
2017-01-01T09:48:49.705Z,567.67
2017-01-01T09:49:49.697Z,569.58
2017-01-01T09:50:49.704Z,570.34
2017-01-01T09:51:49.698Z,571.09
2017-01-01T09:52:49.707Z,571.53
2017-01-01T09:53:49.696Z,570.94
2017-01-01T09:54:49.703Z,571.35
2017-01-01T09:55:49.700Z,570.95
2017-01-01T09:56:49.703Z,571.54
2017-01-01T09:57:49.718Z,570.7
2017-01-01T09:58:49.704Z,570.56
2017-01-01T09:59:49.705Z,569.75
2017-01-01T10:00:49.713Z,568.41
2017-01-01T10:01:49.707Z,568.04
2017-01-01T10:02:49.715Z,567.85
2017-01-01T10:03:49.710Z,567.19
2017-01-01T10:04:49.712Z,566.41
2017-01-01T10:05:49.705Z,566.71
2017-01-01T10:06:49.707Z,566.08
2017-01-01T10:07:49.729Z,565.83
2017-01-01T10:08:49.708Z,567.21
2017-01-01T10:09:49.719Z,566.74
2017-01-01T10:10:49.720Z,566.78
2017-01-01T10:11:49.738Z,566.96
2017-01-01T10:12:49.710Z,566.97
2017-01-01T10:13:49.716Z,566.76
2017-01-01T10:14:49.735Z,566.39
2017-01-01T10:15:49.717Z,566.15
2017-01-01T10:16:49.721Z,568.09
2017-01-01T10:17:49.715Z,569.04
2017-01-01T10:18:49.737Z,570.57
2017-01-01T10:19:49.715Z,571.66
2017-01-01T10:20:49.707Z,573.05
2017-01-01T10:21:49.730Z,573.42
2017-01-01T10:22:49.719Z,573.93
2017-01-01T10:23:49.711Z,573.91
2017-01-01T10:24:49.725Z,574.93
2017-01-01T10:25:49.731Z,574.1
2017-01-01T10:26:49.725Z,573.93
2017-01-01T10:27:49.719Z,574.31
2017-01-01T10:28:49.711Z,574.64
2017-01-01T10:29:49.732Z,575.81
2017-01-01T10:30:49.724Z,574.26
2017-01-01T10:31:49.728Z,575.6
2017-01-01T10:32:49.729Z,577
2017-01-01T10:33:49.725Z,577.53
2017-01-01T10:34:49.724Z,579.38
2017-01-01T10:35:49.731Z,580.9
2017-01-01T10:36:49.723Z,582.22
2017-01-01T10:37:49.757Z,582.76
2017-01-01T10:38:49.733Z,583.77
2017-01-01T10:39:49.801Z,583.38
2017-01-01T10:40:51.352Z,585.67
2017-01-01T10:41:52.272Z,587.18
2017-01-01T10:42:49.737Z,586.82
2017-01-01T10:43:49.728Z,587.53
2017-01-01T10:44:49.741Z,587.9
2017-01-01T10:45:49.756Z,587.78
2017-01-01T10:46:49.732Z,587.95
2017-01-01T10:47:49.726Z,587.94
2017-01-01T10:48:49.745Z,588.1
2017-01-01T10:49:49.739Z,587.9
2017-01-01T10:50:49.736Z,588.47
2017-01-01T10:51:49.738Z,587.9
2017-01-01T10:52:49.738Z,587.34
2017-01-01T10:53:49.746Z,588.34
2017-01-01T10:54:49.751Z,589.25
2017-01-01T10:55:49.760Z,589.07
2017-01-01T10:56:49.753Z,588.85
2017-01-01T10:57:49.744Z,590.49
2017-01-01T10:58:49.746Z,591.06
2017-01-01T10:59:50.064Z,593.07
2017-01-01T11:00:49.759Z,595.18
2017-01-01T11:01:49.741Z,597.24
2017-01-01T11:02:49.755Z,599.07
2017-01-01T11:03:49.746Z,600.78
2017-01-01T11:04:49.743Z,601.14
2017-01-01T11:05:49.764Z,601.46
2017-01-01T11:06:49.749Z,602.02
2017-01-01T11:07:49.744Z,601.99
2017-01-01T11:08:49.747Z,601.91
2017-01-01T11:09:49.739Z,602.4
2017-01-01T11:10:49.756Z,602.92
2017-01-01T11:11:49.772Z,603.32
2017-01-01T11:12:49.765Z,603.26
2017-01-01T11:13:49.777Z,605.27
2017-01-01T11:14:49.755Z,606.29
2017-01-01T11:15:49.763Z,609.86
2017-01-01T11:16:49.755Z,611.05
2017-01-01T11:17:49.794Z,612.86
2017-01-01T11:18:49.768Z,615.46
2017-01-01T11:19:49.745Z,617.63
2017-01-01T11:20:49.752Z,620.02
2017-01-01T11:21:49.769Z,623.32
2017-01-01T11:22:49.764Z,625.71
2017-01-01T11:23:49.748Z,627.68
2017-01-01T11:24:49.764Z,629.7
2017-01-01T11:25:49.769Z,630.6
2017-01-01T11:26:49.750Z,631.46
2017-01-01T11:27:49.753Z,633.43
2017-01-01T11:28:49.761Z,632.91
2017-01-01T11:29:49.755Z,635.13
2017-01-01T11:30:49.777Z,636.29
2017-01-01T11:31:49.756Z,636.42
2017-01-01T11:32:49.773Z,638.82
2017-01-01T11:33:49.766Z,640.07
2017-01-01T11:34:49.760Z,642.65
2017-01-01T11:35:49.765Z,643.89
2017-01-01T11:36:49.774Z,646.21
2017-01-01T11:37:49.772Z,648.98
2017-01-01T11:38:49.775Z,649.85
2017-01-01T11:39:49.779Z,652.36
2017-01-01T11:40:49.773Z,654.64
2017-01-01T11:41:49.895Z,657.2
2017-01-01T11:42:49.755Z,660.05
2017-01-01T11:43:49.761Z,661.45
2017-01-01T11:44:49.783Z,662.21
2017-01-01T11:45:49.777Z,664.36
2017-01-01T11:46:49.770Z,665.26
2017-01-01T11:47:49.760Z,667.19
2017-01-01T11:48:49.787Z,669.29
2017-01-01T11:49:49.764Z,672.83
2017-01-01T11:50:50.066Z,675.08
2017-01-01T11:51:49.789Z,676.64
2017-01-01T11:52:49.850Z,676.47
2017-01-01T11:53:49.773Z,676.72
2017-01-01T11:54:49.771Z,676.47
2017-01-01T11:55:49.776Z,677.06
2017-01-01T11:56:49.783Z,679.12
2017-01-01T11:57:49.780Z,679.23
2017-01-01T11:58:49.767Z,682.01
2017-01-01T11:59:49.772Z,683.84
2017-01-01T12:00:49.796Z,685.54
2017-01-01T12:01:49.772Z,684.99
2017-01-01T12:02:49.783Z,683.75
2017-01-01T12:03:49.783Z,683.01
2017-01-01T12:04:49.779Z,679.26
2017-01-01T12:05:49.799Z,675.01
2017-01-01T12:06:49.783Z,670.58
2017-01-01T12:07:50.105Z,665.3
2017-01-01T12:08:49.789Z,659.43
2017-01-01T12:09:49.787Z,652.95
2017-01-01T12:10:49.803Z,647.6
2017-01-01T12:11:49.784Z,643.31
2017-01-01T12:12:49.789Z,639
2017-01-01T12:13:49.798Z,634.28
2017-01-01T12:14:49.778Z,629.67
2017-01-01T12:15:49.793Z,626.71
2017-01-01T12:16:49.781Z,623.61
2017-01-01T12:17:49.788Z,622.13
2017-01-01T12:18:49.805Z,619.18
2017-01-01T12:19:49.813Z,616.38
2017-01-01T12:20:49.820Z,613.8
2017-01-01T12:21:49.794Z,611.35
2017-01-01T12:22:49.786Z,608.93
2017-01-01T12:23:49.803Z,607.65
2017-01-01T12:24:49.792Z,605.6
2017-01-01T12:25:50.128Z,603.33
2017-01-01T12:26:50.066Z,601.22
2017-01-01T12:27:49.794Z,599.54
2017-01-01T12:28:49.804Z,597.47
2017-01-01T12:29:50.111Z,595.34
2017-01-01T12:30:49.820Z,592.9
2017-01-01T12:31:49.998Z,591.83